createdAt,value
2023-05-18T00:01:16.847Z,98289.19
2023-05-18T00:05:21.796Z,98286.44
2023-05-18T00:09:25.811Z,98281.22
2023-05-18T00:13:29.840Z,98286.31
2023-05-18T00:17:33.071Z,98288.91
2023-05-18T00:21:38.292Z,98282.91
2023-05-18T00:25:43.400Z,98284.66
2023-05-18T00:29:47.162Z,98282.22
2023-05-18T00:33:50.578Z,98284.81
2023-05-18T00:37:58.346Z,98282.34
2023-05-18T00:42:01.481Z,98285.94
2023-05-18T00:46:04.665Z,98278.25
2023-05-18T00:50:09.401Z,98281.53
2023-05-18T00:54:14.029Z,98273.84
2023-05-18T00:58:17.851Z,98278.25
2023-05-18T01:02:21.576Z,98272.22
2023-05-18T01:06:27.457Z,98266.03
2023-05-18T01:10:36.011Z,98273.84
2023-05-18T01:14:46.374Z,98277.28
2023-05-18T01:19:02.380Z,98278.25
2023-05-18T01:23:36.514Z,98275.75
2023-05-18T01:27:42.653Z,98269.72
2023-05-18T01:31:46.055Z,98282.63
2023-05-18T01:35:49.407Z,98276.44
2023-05-18T01:39:55.654Z,98272.91
2023-05-18T01:44:08.176Z,98277.13
2023-05-18T01:48:14.002Z,98277.97
2023-05-18T01:52:20.817Z,98277.13
2023-05-18T01:56:24.985Z,98271.09
2023-05-18T02:00:30.950Z,98276.31
2023-05-18T02:04:35.402Z,98279.88
2023-05-18T02:08:39.398Z,98275.66
2023-05-18T02:12:53.760Z,98273.03
2023-05-18T02:16:58.498Z,98275.50
2023-05-18T02:21:02.412Z,98275.50
2023-05-18T02:25:07.775Z,98273.56
2023-05-18T02:29:12.190Z,98275.22
2023-05-18T02:33:17.959Z,98266.44
2023-05-18T02:37:23.501Z,98276.84
2023-05-18T02:41:27.004Z,98269.72
2023-05-18T02:45:33.118Z,98273.00
2023-05-18T02:49:38.244Z,98264.34
2023-05-18T02:53:44.458Z,98261.75
2023-05-18T02:57:49.519Z,98266.97
2023-05-18T03:01:53.265Z,98272.16
2023-05-18T03:05:58.900Z,98278.19
2023-05-18T03:10:04.708Z,98284.25
2023-05-18T03:14:07.843Z,98278.19
2023-05-18T03:18:11.150Z,98284.25
2023-05-18T03:22:16.140Z,98283.41
2023-05-18T03:26:19.278Z,98283.69
2023-05-18T03:30:22.590Z,98280.16
2023-05-18T03:34:27.153Z,98284.66
2023-05-18T03:38:32.396Z,98291.50
2023-05-18T03:42:35.824Z,98285.50
2023-05-18T03:46:39.204Z,98290.56
2023-05-18T03:50:42.857Z,98293.00
2023-05-18T03:54:50.095Z,98296.28
2023-05-18T03:58:53.170Z,98293.56
2023-05-18T04:02:58.070Z,98291.63
2023-05-18T04:07:06.525Z,98293.25
2023-05-18T04:11:11.821Z,98291.34
2023-05-18T04:15:15.889Z,98282.84
2023-05-18T04:19:20.687Z,98281.72
2023-05-18T04:23:24.175Z,98287.09
2023-05-18T04:27:29.818Z,98288.75
2023-05-18T04:31:34.834Z,98290.38
2023-05-18T04:35:38.499Z,98299.97
2023-05-18T04:39:42.403Z,98297.22
2023-05-18T04:43:47.724Z,98299.53
2023-05-18T04:47:54.515Z,98303.50
2023-05-18T04:52:00.387Z,98304.97
2023-05-18T04:56:03.688Z,98308.13
2023-05-18T05:00:11.611Z,98308.38
2023-05-18T05:04:15.116Z,98313.16
2023-05-18T05:08:18.236Z,98310.81
2023-05-18T05:12:21.385Z,98309.69
2023-05-18T05:16:26.279Z,98314.69
2023-05-18T05:20:29.903Z,98316.44
2023-05-18T05:24:33.758Z,98316.50
2023-05-18T05:28:36.877Z,98315.03
2023-05-18T05:32:41.579Z,98313.88
2023-05-18T05:36:44.739Z,98320.47
2023-05-18T05:40:48.020Z,98313.25
2023-05-18T05:44:51.122Z,98317.97
2023-05-18T05:48:56.766Z,98309.59
2023-05-18T05:53:00.204Z,98316.88
2023-05-18T05:57:04.396Z,98319.75
2023-05-18T06:01:10.979Z,98313.66
2023-05-18T06:05:16.052Z,98318.59
2023-05-18T06:09:19.026Z,98330.28
2023-05-18T06:13:22.357Z,98330.69
2023-05-18T06:17:25.821Z,98326.94
2023-05-18T06:21:30.486Z,98328.34
2023-05-18T06:25:35.446Z,98342.09
2023-05-18T06:29:39.030Z,98343.78
2023-05-18T06:33:44.470Z,98339.88
2023-05-18T06:37:49.254Z,98337.44
2023-05-18T06:41:52.933Z,98338.63
2023-05-18T06:45:57.269Z,98337.00
2023-05-18T06:50:00.507Z,98338.97
2023-05-18T06:54:06.038Z,98335.66
2023-05-18T06:58:09.613Z,98339.34
2023-05-18T07:02:13.804Z,98342.94
2023-05-18T07:06:17.720Z,98344.06
2023-05-18T07:10:23.148Z,98344.88
2023-05-18T07:14:26.579Z,98342.22
2023-05-18T07:18:30.047Z,98342.22
2023-05-18T07:22:33.378Z,98345.97
2023-05-18T07:26:38.647Z,98349.22
2023-05-18T07:30:43.326Z,98341.81
2023-05-18T07:34:48.057Z,98350.16
2023-05-18T07:38:55.031Z,98348.94
2023-05-18T07:43:00.020Z,98344.84
2023-05-18T07:47:03.524Z,98347.28
2023-05-18T07:51:07.612Z,98358.41
2023-05-18T07:55:11.457Z,98350.25
2023-05-18T07:59:16.505Z,98352.91
2023-05-18T08:03:20.574Z,98356.88
2023-05-18T08:07:26.926Z,98365.75
2023-05-18T08:11:30.208Z,98366.13
2023-05-18T08:15:35.592Z,98363.19
2023-05-18T08:19:41.099Z,98362.91
2023-05-18T08:23:45.060Z,98370.22
2023-05-18T08:27:48.380Z,98380.84
2023-05-18T08:31:54.386Z,98380.09
2023-05-18T08:35:59.120Z,98385.09
2023-05-18T08:40:05.272Z,98390.06
2023-05-18T08:44:13.450Z,98387.84
2023-05-18T08:48:18.425Z,98390.59
2023-05-18T08:52:28.054Z,98392.19
2023-05-18T08:56:34.000Z,98386.59
2023-05-18T09:00:38.700Z,98389.53
2023-05-18T09:04:45.231Z,98390.34
2023-05-18T09:08:48.831Z,98383.97
2023-05-18T09:12:53.469Z,98388.59
2023-05-18T09:16:57.146Z,98383.59
2023-05-18T09:21:02.448Z,98384.28
2023-05-18T09:25:09.920Z,98381.25
2023-05-18T09:29:21.042Z,98375.44
2023-05-18T09:33:27.917Z,98373.88
2023-05-18T09:37:33.119Z,98378.81
2023-05-18T09:41:36.676Z,98380.53
2023-05-18T09:45:44.981Z,98369.72
2023-05-18T09:49:48.903Z,98363.53
2023-05-18T09:53:57.373Z,98365.59
2023-05-18T09:58:03.456Z,98360.72
2023-05-18T10:02:09.413Z,98356.13
2023-05-18T10:06:13.714Z,98357.75
2023-05-18T10:10:23.138Z,98357.22
2023-05-18T10:14:31.609Z,98367.59
2023-05-18T10:18:37.807Z,98359.53
2023-05-18T10:22:42.390Z,98352.59
2023-05-18T10:26:52.986Z,98352.78
2023-05-18T10:30:58.918Z,98346.56
2023-05-18T10:35:06.125Z,98363.84
2023-05-18T10:39:12.500Z,98348.69
2023-05-18T10:43:21.264Z,98356.88
2023-05-18T10:47:26.677Z,98356.72
2023-05-18T10:51:32.777Z,98354.09
2023-05-18T10:55:36.188Z,98348.81
2023-05-18T10:59:48.205Z,98356.88
2023-05-18T11:03:52.157Z,98351.81
2023-05-18T11:08:04.338Z,98351.16
2023-05-18T11:12:13.251Z,98354.44
2023-05-18T11:16:19.074Z,98361.69
2023-05-18T11:20:27.251Z,98350.31
2023-05-18T11:24:34.685Z,98346.72
2023-05-18T11:28:44.793Z,98350.16
2023-05-18T11:32:52.974Z,98351.81
2023-05-18T11:36:58.251Z,98360.84
2023-05-18T11:41:01.801Z,98357.25
2023-05-18T11:45:09.157Z,98351.81
2023-05-18T11:49:18.366Z,98353.91
2023-05-18T11:53:24.135Z,98358.78
2023-05-18T11:57:29.276Z,98357.34
2023-05-18T12:01:36.292Z,98354.25
2023-05-18T12:05:44.598Z,98357.25
2023-05-18T12:09:51.442Z,98347.09
2023-05-18T12:13:56.679Z,98349.88
2023-05-18T12:18:00.658Z,98351.50
2023-05-18T12:22:06.292Z,98351.16
2023-05-18T12:26:10.203Z,98349.19
2023-05-18T12:30:14.697Z,98350.38
2023-05-18T12:34:18.209Z,98347.56
2023-05-18T12:38:28.485Z,98344.28
2023-05-18T12:42:32.894Z,98343.53
2023-05-18T12:46:36.372Z,98349.59
2023-05-18T12:50:48.490Z,98341.16
2023-05-18T12:55:00.097Z,98348.06
2023-05-18T12:59:06.349Z,98346.63
2023-05-18T13:03:14.726Z,98340.59
2023-05-18T13:07:19.024Z,98341.69
2023-05-18T13:11:26.387Z,98339.97
2023-05-18T13:15:34.759Z,98340.13
2023-05-18T13:19:38.505Z,98342.53
2023-05-18T13:23:41.982Z,98351.59
2023-05-18T13:27:49.083Z,98336.88
2023-05-18T13:31:54.854Z,98343.22
2023-05-18T13:35:58.690Z,98343.94
2023-05-18T13:40:05.307Z,98332.06
2023-05-18T13:44:09.969Z,98332.31
2023-05-18T13:48:14.804Z,98328.34
2023-05-18T13:52:20.630Z,98334.22
2023-05-18T13:56:25.467Z,98329.44
2023-05-18T14:00:33.674Z,98329.38
2023-05-18T14:04:39.496Z,98325.13
2023-05-18T14:08:42.740Z,98330.94
2023-05-18T14:12:46.896Z,98324.75
2023-05-18T14:16:52.021Z,98325.38
2023-05-18T14:21:01.184Z,98321.25
2023-05-18T14:25:04.798Z,98320.44
2023-05-18T14:29:08.139Z,98321.59
2023-05-18T14:33:11.648Z,98304.16
2023-05-18T14:37:16.017Z,98308.44
2023-05-18T14:41:19.420Z,98297.50
2023-05-18T14:45:22.902Z,98298.75
2023-05-18T14:49:25.921Z,98302.75
2023-05-18T14:53:31.104Z,98292.78
2023-05-18T14:57:34.376Z,98291.16
2023-05-18T15:01:40.127Z,98285.59
2023-05-18T15:05:44.769Z,98291.25
2023-05-18T15:09:50.300Z,98287.19
2023-05-18T15:13:54.230Z,98287.56
2023-05-18T15:17:58.121Z,98282.00
2023-05-18T15:22:01.766Z,98283.19
2023-05-18T15:26:08.938Z,98288.16
2023-05-18T15:30:13.354Z,98276.44
2023-05-18T15:34:16.946Z,98287.97
2023-05-18T15:38:21.590Z,98283.44
2023-05-18T15:42:26.285Z,98279.53
2023-05-18T15:46:35.002Z,98276.19
2023-05-18T15:50:38.617Z,98268.38
2023-05-18T15:54:42.128Z,98273.56
2023-05-18T15:58:47.463Z,98266.41
2023-05-18T16:02:50.828Z,98268.13
2023-05-18T16:06:54.214Z,98269.66
2023-05-18T16:10:59.079Z,98264.94
2023-05-18T16:15:05.913Z,98265.47
2023-05-18T16:19:12.380Z,98264.56
2023-05-18T16:23:15.798Z,98267.38
2023-05-18T16:27:20.283Z,98264.94
2023-05-18T16:31:25.450Z,98266.91
2023-05-18T16:35:31.250Z,98267.44
2023-05-18T16:39:34.923Z,98264.69
2023-05-18T16:43:38.150Z,98268.25
2023-05-18T16:47:45.368Z,98270.66
2023-05-18T16:51:48.480Z,98266.16
2023-05-18T16:55:51.657Z,98265.97
2023-05-18T16:59:55.491Z,98266.25
2023-05-18T17:04:00.554Z,98267.44
2023-05-18T17:08:05.170Z,98271.44
2023-05-18T17:12:11.358Z,98278.69
2023-05-18T17:16:22.200Z,98280.72
2023-05-18T17:20:27.218Z,98286.00
2023-05-18T17:24:30.338Z,98287.03
2023-05-18T17:28:33.533Z,98286.06
2023-05-18T17:32:42.430Z,98290.88
2023-05-18T17:36:48.007Z,98284.50
2023-05-18T17:40:51.396Z,98288.59
2023-05-18T17:44:55.224Z,98287.63
2023-05-18T17:49:02.348Z,98289.47
2023-05-18T17:53:08.234Z,98290.28
2023-05-18T17:57:11.536Z,98288.69
2023-05-18T18:01:15.031Z,98281.66
2023-05-18T18:05:18.451Z,98282.63
2023-05-18T18:09:23.528Z,98280.03
2023-05-18T18:13:26.824Z,98284.28
2023-05-18T18:17:30.388Z,98283.66
2023-05-18T18:21:33.969Z,98287.25
2023-05-18T18:25:40.295Z,98284.63
2023-05-18T18:29:45.696Z,98285.59
2023-05-18T18:33:50.682Z,98280.38
2023-05-18T18:37:55.038Z,98283.78
2023-05-18T18:42:02.551Z,98288.03
2023-05-18T18:46:10.500Z,98291.44
2023-05-18T18:50:13.771Z,98292.09
2023-05-18T18:54:17.462Z,98290.09
2023-05-18T18:58:25.403Z,98295.00
2023-05-18T19:02:29.202Z,98301.56
2023-05-18T19:06:33.562Z,98295.97
2023-05-18T19:10:36.926Z,98296.28
2023-05-18T19:14:43.361Z,98307.03
2023-05-18T19:18:47.326Z,98306.53
2023-05-18T19:22:50.438Z,98311.25
2023-05-18T19:26:53.516Z,98306.34
2023-05-18T19:30:58.148Z,98311.06
2023-05-18T19:35:01.939Z,98309.56
2023-05-18T19:39:05.236Z,98311.69
2023-05-18T19:43:12.165Z,98305.00
2023-05-18T19:47:18.377Z,98320.84
2023-05-18T19:51:24.204Z,98324.56
2023-05-18T19:55:27.754Z,98322.13
2023-05-18T19:59:32.339Z,98320.63
2023-05-18T20:03:42.297Z,98320.94
2023-05-18T20:07:46.993Z,98318.81
2023-05-18T20:11:50.738Z,98321.75
2023-05-18T20:15:54.542Z,98323.81
2023-05-18T20:20:00.497Z,98324.13
2023-05-18T20:24:05.648Z,98329.66
2023-05-18T20:28:09.735Z,98324.59
2023-05-18T20:32:13.064Z,98327.50
2023-05-18T20:36:17.544Z,98331.94
2023-05-18T20:40:21.597Z,98333.88
2023-05-18T20:44:28.054Z,98332.25
2023-05-18T20:48:32.164Z,98323.72
2023-05-18T20:52:37.392Z,98327.31
2023-05-18T20:56:43.546Z,98324.03
2023-05-18T21:00:48.189Z,98323.38
2023-05-18T21:04:51.757Z,98334.78
2023-05-18T21:08:57.137Z,98321.91
2023-05-18T21:13:00.689Z,98320.41
2023-05-18T21:17:13.796Z,98321.38
2023-05-18T21:21:17.285Z,98317.16
2023-05-18T21:25:24.702Z,98320.72
2023-05-18T21:29:28.340Z,98314.84
2023-05-18T21:33:33.453Z,98310.72
2023-05-18T21:37:37.881Z,98308.28
2023-05-18T21:41:56.116Z,98308.44
2023-05-18T21:45:59.297Z,98309.53
2023-05-18T21:50:03.700Z,98304.47
2023-05-18T21:54:07.603Z,98308.38
2023-05-18T21:58:12.137Z,98301.50
2023-05-18T22:02:15.215Z,98307.03
2023-05-18T22:06:19.254Z,98308.16
2023-05-18T22:10:22.620Z,98309.13
2023-05-18T22:14:27.466Z,98298.03
2023-05-18T22:18:32.504Z,98299.97
2023-05-18T22:22:35.850Z,98292.28
2023-05-18T22:26:39.265Z,98283.78
2023-05-18T22:30:44.102Z,98288.19
2023-05-18T22:34:48.052Z,98281.63
2023-05-18T22:38:52.718Z,98290.44
2023-05-18T22:42:57.274Z,98285.22
2023-05-18T22:47:02.373Z,98285.22
2023-05-18T22:51:06.635Z,98282.78
2023-05-18T22:55:13.714Z,98275.09
2023-05-18T22:59:17.067Z,98270.66
2023-05-18T23:03:22.398Z,98273.44
2023-05-18T23:07:25.679Z,98277.03
2023-05-18T23:11:31.770Z,98273.72
2023-05-18T23:15:35.650Z,98273.72
2023-05-18T23:19:40.998Z,98278.16
2023-05-18T23:23:46.101Z,98266.88
2023-05-18T23:27:49.757Z,98270.47
2023-05-18T23:31:53.235Z,98267.03
2023-05-18T23:36:03.415Z,98274.06
2023-05-18T23:40:13.813Z,98262.94
2023-05-18T23:44:18.182Z,98258.81
2023-05-18T23:48:25.124Z,98258.97
2023-05-18T23:52:34.439Z,98256.50
2023-05-18T23:56:40.740Z,98253.38
